sensor_id;sensor_type;location;lat;lon;timestamp;P1;durP1;ratioP1;P2;durP2;ratioP2
28762;SDS011;15918;51.270;6.522;2023-09-07T00:01:30;8.07;;;6.07;;
28762;SDS011;15918;51.270;6.522;2023-09-07T00:03:56;6.47;;;5.88;;
28762;SDS011;15918;51.270;6.522;2023-09-07T00:06:21;9.60;;;6.65;;
28762;SDS011;15918;51.270;6.522;2023-09-07T00:08:47;7.63;;;6.13;;
28762;SDS011;15918;51.270;6.522;2023-09-07T00:11:13;7.03;;;5.47;;
28762;SDS011;15918;51.270;6.522;2023-09-07T00:13:38;6.85;;;6.15;;
28762;SDS011;15918;51.270;6.522;2023-09-07T00:16:04;8.80;;;6.40;;
28762;SDS011;15918;51.270;6.522;2023-09-07T00:18:31;7.35;;;6.28;;
28762;SDS011;15918;51.270;6.522;2023-09-07T00:20:58;6.45;;;5.85;;
28762;SDS011;15918;51.270;6.522;2023-09-07T00:23:24;9.95;;;6.28;;
28762;SDS011;15918;51.270;6.522;2023-09-07T00:25:50;6.95;;;6.05;;
28762;SDS011;15918;51.270;6.522;2023-09-07T00:28:16;7.28;;;6.13;;
28762;SDS011;15918;51.270;6.522;2023-09-07T00:30:41;8.23;;;5.65;;
28762;SDS011;15918;51.270;6.522;2023-09-07T00:33:08;6.45;;;5.85;;
28762;SDS011;15918;51.270;6.522;2023-09-07T00:35:34;6.72;;;6.03;;
28762;SDS011;15918;51.270;6.522;2023-09-07T00:38:00;7.05;;;6.35;;
28762;SDS011;15918;51.270;6.522;2023-09-07T00:40:26;6.63;;;6.03;;
28762;SDS011;15918;51.270;6.522;2023-09-07T00:42:52;7.93;;;6.32;;
28762;SDS011;15918;51.270;6.522;2023-09-07T00:45:18;6.70;;;6.00;;
28762;SDS011;15918;51.270;6.522;2023-09-07T00:47:44;6.65;;;5.95;;
28762;SDS011;15918;51.270;6.522;2023-09-07T00:50:10;6.78;;;6.07;;
28762;SDS011;15918;51.270;6.522;2023-09-07T00:52:39;9.50;;;6.20;;
28762;SDS011;15918;51.270;6.522;2023-09-07T00:55:07;6.40;;;5.80;;
28762;SDS011;15918;51.270;6.522;2023-09-07T00:57:33;6.93;;;6.25;;
28762;SDS011;15918;51.270;6.522;2023-09-07T00:59:59;6.90;;;6.30;;
28762;SDS011;15918;51.270;6.522;2023-09-07T01:02:25;6.28;;;5.55;;
28762;SDS011;15918;51.270;6.522;2023-09-07T01:04:51;7.53;;;5.88;;
28762;SDS011;15918;51.270;6.522;2023-09-07T01:07:19;7.32;;;5.57;;
28762;SDS011;15918;51.270;6.522;2023-09-07T01:09:49;6.55;;;5.90;;
28762;SDS011;15918;51.270;6.522;2023-09-07T01:12:19;6.32;;;5.72;;
28762;SDS011;15918;51.270;6.522;2023-09-07T01:14:45;6.70;;;5.72;;
28762;SDS011;15918;51.270;6.522;2023-09-07T01:17:11;6.57;;;5.70;;
28762;SDS011;15918;51.270;6.522;2023-09-07T01:19:38;7.18;;;5.53;;
28762;SDS011;15918;51.270;6.522;2023-09-07T01:22:04;8.60;;;6.72;;
28762;SDS011;15918;51.270;6.522;2023-09-07T01:24:34;6.78;;;6.13;;
28762;SDS011;15918;51.270;6.522;2023-09-07T01:27:01;6.65;;;4.85;;
28762;SDS011;15918;51.270;6.522;2023-09-07T01:29:28;5.53;;;5.03;;
28762;SDS011;15918;51.270;6.522;2023-09-07T01:31:55;6.32;;;5.70;;
28762;SDS011;15918;51.270;6.522;2023-09-07T01:34:21;5.60;;;5.10;;
28762;SDS011;15918;51.270;6.522;2023-09-07T01:36:48;5.90;;;5.40;;
28762;SDS011;15918;51.270;6.522;2023-09-07T01:39:14;7.00;;;5.53;;
28762;SDS011;15918;51.270;6.522;2023-09-07T01:41:39;6.47;;;5.20;;
28762;SDS011;15918;51.270;6.522;2023-09-07T01:44:05;5.97;;;5.38;;
28762;SDS011;15918;51.270;6.522;2023-09-07T01:46:30;6.07;;;5.45;;
28762;SDS011;15918;51.270;6.522;2023-09-07T01:48:56;6.22;;;5.28;;
28762;SDS011;15918;51.270;6.522;2023-09-07T01:51:21;6.68;;;4.85;;
28762;SDS011;15918;51.270;6.522;2023-09-07T01:53:47;8.23;;;5.68;;
28762;SDS011;15918;51.270;6.522;2023-09-07T01:56:16;4.85;;;4.45;;
28762;SDS011;15918;51.270;6.522;2023-09-07T01:58:42;6.15;;;5.25;;
28762;SDS011;15918;51.270;6.522;2023-09-07T02:01:19;6.18;;;4.65;;
28762;SDS011;15918;51.270;6.522;2023-09-07T02:03:54;6.35;;;5.30;;
28762;SDS011;15918;51.270;6.522;2023-09-07T02:06:20;6.25;;;5.28;;
28762;SDS011;15918;51.270;6.522;2023-09-07T02:08:46;6.32;;;5.70;;
28762;SDS011;15918;51.270;6.522;2023-09-07T02:11:12;6.72;;;5.68;;
28762;SDS011;15918;51.270;6.522;2023-09-07T02:13:38;4.95;;;4.55;;
28762;SDS011;15918;51.270;6.522;2023-09-07T02:16:07;5.50;;;5.00;;
28762;SDS011;15918;51.270;6.522;2023-09-07T02:18:33;6.28;;;5.32;;
28762;SDS011;15918;51.270;6.522;2023-09-07T02:21:02;5.53;;;4.82;;
28762;SDS011;15918;51.270;6.522;2023-09-07T02:23:29;5.32;;;4.82;;
28762;SDS011;15918;51.270;6.522;2023-09-07T02:25:55;6.60;;;5.05;;
28762;SDS011;15918;51.270;6.522;2023-09-07T02:28:21;5.70;;;5.30;;
28762;SDS011;15918;51.270;6.522;2023-09-07T02:30:47;5.85;;;4.70;;
28762;SDS011;15918;51.270;6.522;2023-09-07T02:33:12;5.55;;;5.05;;
28762;SDS011;15918;51.270;6.522;2023-09-07T02:35:38;5.47;;;4.93;;
28762;SDS011;15918;51.270;6.522;2023-09-07T02:38:04;4.82;;;4.40;;
28762;SDS011;15918;51.270;6.522;2023-09-07T02:40:29;6.57;;;4.95;;
28762;SDS011;15918;51.270;6.522;2023-09-07T02:42:55;5.60;;;5.10;;
28762;SDS011;15918;51.270;6.522;2023-09-07T02:45:20;5.32;;;4.80;;
28762;SDS011;15918;51.270;6.522;2023-09-07T02:47:46;6.85;;;5.07;;
28762;SDS011;15918;51.270;6.522;2023-09-07T02:50:14;5.50;;;5.00;;
28762;SDS011;15918;51.270;6.522;2023-09-07T02:52:41;5.22;;;4.68;;
28762;SDS011;15918;51.270;6.522;2023-09-07T02:55:06;6.13;;;5.38;;
28762;SDS011;15918;51.270;6.522;2023-09-07T02:57:32;5.80;;;5.25;;
28762;SDS011;15918;51.270;6.522;2023-09-07T02:59:59;5.40;;;4.90;;
28762;SDS011;15918;51.270;6.522;2023-09-07T03:02:24;5.10;;;4.60;;
28762;SDS011;15918;51.270;6.522;2023-09-07T03:04:54;7.45;;;5.43;;
28762;SDS011;15918;51.270;6.522;2023-09-07T03:07:20;5.70;;;4.40;;
28762;SDS011;15918;51.270;6.522;2023-09-07T03:09:45;5.38;;;4.80;;
28762;SDS011;15918;51.270;6.522;2023-09-07T03:12:11;5.00;;;4.43;;
28762;SDS011;15918;51.270;6.522;2023-09-07T03:14:36;5.25;;;4.75;;
28762;SDS011;15918;51.270;6.522;2023-09-07T03:17:02;6.32;;;4.82;;
28762;SDS011;15918;51.270;6.522;2023-09-07T03:19:28;6.78;;;4.50;;
28762;SDS011;15918;51.270;6.522;2023-09-07T03:21:54;5.30;;;4.70;;
28762;SDS011;15918;51.270;6.522;2023-09-07T03:24:20;6.25;;;4.65;;
28762;SDS011;15918;51.270;6.522;2023-09-07T03:26:45;5.70;;;5.10;;
28762;SDS011;15918;51.270;6.522;2023-09-07T03:29:11;6.80;;;5.15;;
28762;SDS011;15918;51.270;6.522;2023-09-07T03:31:36;7.45;;;6.45;;
28762;SDS011;15918;51.270;6.522;2023-09-07T03:34:02;10.25;;;8.82;;
28762;SDS011;15918;51.270;6.522;2023-09-07T03:36:28;9.55;;;8.65;;
28762;SDS011;15918;51.270;6.522;2023-09-07T03:38:53;9.32;;;7.93;;
28762;SDS011;15918;51.270;6.522;2023-09-07T03:41:19;7.82;;;7.03;;
28762;SDS011;15918;51.270;6.522;2023-09-07T03:43:44;8.00;;;7.20;;
28762;SDS011;15918;51.270;6.522;2023-09-07T03:46:10;7.97;;;6.43;;
28762;SDS011;15918;51.270;6.522;2023-09-07T03:48:35;7.32;;;6.10;;
28762;SDS011;15918;51.270;6.522;2023-09-07T03:51:04;7.90;;;6.53;;
28762;SDS011;15918;51.270;6.522;2023-09-07T03:53:31;6.95;;;6.35;;
28762;SDS011;15918;51.270;6.522;2023-09-07T03:55:56;7.28;;;6.18;;
28762;SDS011;15918;51.270;6.522;2023-09-07T03:58:22;6.13;;;5.53;;
28762;SDS011;15918;51.270;6.522;2023-09-07T04:00:47;6.65;;;5.90;;
28762;SDS011;15918;51.270;6.522;2023-09-07T04:03:13;6.22;;;5.63;;
28762;SDS011;15918;51.270;6.522;2023-09-07T04:05:39;6.28;;;5.68;;
28762;SDS011;15918;51.270;6.522;2023-09-07T04:08:05;6.00;;;5.40;;
28762;SDS011;15918;51.270;6.522;2023-09-07T04:10:32;7.65;;;5.60;;
28762;SDS011;15918;51.270;6.522;2023-09-07T04:12:57;5.75;;;5.10;;
28762;SDS011;15918;51.270;6.522;2023-09-07T04:15:23;6.05;;;5.15;;
28762;SDS011;15918;51.270;6.522;2023-09-07T04:17:50;6.10;;;5.32;;
28762;SDS011;15918;51.270;6.522;2023-09-07T04:20:16;5.90;;;5.10;;
28762;SDS011;15918;51.270;6.522;2023-09-07T04:22:42;5.63;;;5.07;;
28762;SDS011;15918;51.270;6.522;2023-09-07T04:25:08;5.38;;;4.85;;
28762;SDS011;15918;51.270;6.522;2023-09-07T04:27:34;5.35;;;4.53;;
28762;SDS011;15918;51.270;6.522;2023-09-07T04:29:59;8.32;;;5.53;;
28762;SDS011;15918;51.270;6.522;2023-09-07T04:32:25;5.55;;;5.03;;
28762;SDS011;15918;51.270;6.522;2023-09-07T04:34:57;6.20;;;5.55;;
28762;SDS011;15918;51.270;6.522;2023-09-07T04:37:24;6.68;;;4.95;;
28762;SDS011;15918;51.270;6.522;2023-09-07T04:39:51;5.53;;;5.03;;
28762;SDS011;15918;51.270;6.522;2023-09-07T04:45:46;5.32;;;4.80;;
28762;SDS011;15918;51.270;6.522;2023-09-07T04:48:12;5.47;;;4.97;;
28762;SDS011;15918;51.270;6.522;2023-09-07T04:50:37;5.65;;;5.05;;
28762;SDS011;15918;51.270;6.522;2023-09-07T04:53:03;5.63;;;5.13;;
28762;SDS011;15918;51.270;6.522;2023-09-07T04:55:28;5.10;;;4.70;;
28762;SDS011;15918;51.270;6.522;2023-09-07T04:57:54;7.35;;;5.40;;
28762;SDS011;15918;51.270;6.522;2023-09-07T05:00:19;5.50;;;4.40;;
28762;SDS011;15918;51.270;6.522;2023-09-07T05:02:45;6.07;;;4.88;;
28762;SDS011;15918;51.270;6.522;2023-09-07T05:05:12;6.03;;;5.22;;
28762;SDS011;15918;51.270;6.522;2023-09-07T05:07:37;6.10;;;4.72;;
28762;SDS011;15918;51.270;6.522;2023-09-07T05:10:03;5.90;;;5.13;;
28762;SDS011;15918;51.270;6.522;2023-09-07T05:12:29;7.13;;;5.40;;
28762;SDS011;15918;51.270;6.522;2023-09-07T05:14:54;5.38;;;4.63;;
28762;SDS011;15918;51.270;6.522;2023-09-07T05:17:20;7.80;;;5.07;;
28762;SDS011;15918;51.270;6.522;2023-09-07T05:19:46;5.57;;;4.82;;
28762;SDS011;15918;51.270;6.522;2023-09-07T05:22:11;5.68;;;5.15;;
28762;SDS011;15918;51.270;6.522;2023-09-07T05:24:40;6.50;;;5.38;;
28762;SDS011;15918;51.270;6.522;2023-09-07T05:27:06;5.10;;;4.47;;
28762;SDS011;15918;51.270;6.522;2023-09-07T05:29:31;6.30;;;5.38;;
28762;SDS011;15918;51.270;6.522;2023-09-07T05:31:57;5.65;;;5.10;;
28762;SDS011;15918;51.270;6.522;2023-09-07T05:34:23;9.45;;;5.72;;
28762;SDS011;15918;51.270;6.522;2023-09-07T05:36:48;6.50;;;5.35;;
28762;SDS011;15918;51.270;6.522;2023-09-07T05:39:14;9.48;;;5.35;;
28762;SDS011;15918;51.270;6.522;2023-09-07T05:41:39;6.45;;;5.60;;
28762;SDS011;15918;51.270;6.522;2023-09-07T05:44:05;8.07;;;5.53;;
28762;SDS011;15918;51.270;6.522;2023-09-07T05:46:31;7.05;;;5.65;;
28762;SDS011;15918;51.270;6.522;2023-09-07T05:48:56;7.03;;;5.75;;
28762;SDS011;15918;51.270;6.522;2023-09-07T05:51:22;6.38;;;5.78;;
28762;SDS011;15918;51.270;6.522;2023-09-07T05:53:47;11.25;;;5.97;;
28762;SDS011;15918;51.270;6.522;2023-09-07T05:56:13;7.85;;;6.18;;
28762;SDS011;15918;51.270;6.522;2023-09-07T05:58:38;8.48;;;6.57;;
28762;SDS011;15918;51.270;6.522;2023-09-07T06:01:04;7.40;;;5.70;;
28762;SDS011;15918;51.270;6.522;2023-09-07T06:03:30;6.35;;;5.43;;
28762;SDS011;15918;51.270;6.522;2023-09-07T06:05:57;6.30;;;5.70;;
28762;SDS011;15918;51.270;6.522;2023-09-07T06:08:22;8.32;;;5.85;;
28762;SDS011;15918;51.270;6.522;2023-09-07T06:10:48;6.47;;;5.82;;
28762;SDS011;15918;51.270;6.522;2023-09-07T06:13:14;6.35;;;5.72;;
28762;SDS011;15918;51.270;6.522;2023-09-07T06:15:40;10.15;;;6.65;;
28762;SDS011;15918;51.270;6.522;2023-09-07T06:18:05;6.90;;;6.20;;
28762;SDS011;15918;51.270;6.522;2023-09-07T06:20:31;7.30;;;6.57;;
28762;SDS011;15918;51.270;6.522;2023-09-07T06:22:56;8.57;;;6.28;;
28762;SDS011;15918;51.270;6.522;2023-09-07T06:25:22;10.10;;;6.50;;
28762;SDS011;15918;51.270;6.522;2023-09-07T06:27:47;6.88;;;6.28;;
28762;SDS011;15918;51.270;6.522;2023-09-07T06:30:13;7.90;;;6.00;;
28762;SDS011;15918;51.270;6.522;2023-09-07T06:32:39;7.57;;;6.35;;
28762;SDS011;15918;51.270;6.522;2023-09-07T06:35:05;7.65;;;6.50;;
28762;SDS011;15918;51.270;6.522;2023-09-07T06:37:31;6.88;;;6.15;;
28762;SDS011;15918;51.270;6.522;2023-09-07T06:39:56;9.32;;;6.55;;
28762;SDS011;15918;51.270;6.522;2023-09-07T06:42:22;7.18;;;6.32;;
28762;SDS011;15918;51.270;6.522;2023-09-07T06:44:47;7.90;;;6.63;;
28762;SDS011;15918;51.270;6.522;2023-09-07T06:47:13;7.18;;;6.40;;
28762;SDS011;15918;51.270;6.522;2023-09-07T06:49:39;10.75;;;6.72;;
28762;SDS011;15918;51.270;6.522;2023-09-07T06:52:05;8.52;;;6.47;;
28762;SDS011;15918;51.270;6.522;2023-09-07T06:54:31;9.82;;;6.95;;
28762;SDS011;15918;51.270;6.522;2023-09-07T06:56:56;10.55;;;6.90;;
28762;SDS011;15918;51.270;6.522;2023-09-07T06:59:22;7.15;;;6.32;;
28762;SDS011;15918;51.270;6.522;2023-09-07T07:01:48;7.65;;;6.13;;
28762;SDS011;15918;51.270;6.522;2023-09-07T07:04:13;8.30;;;6.32;;
28762;SDS011;15918;51.270;6.522;2023-09-07T07:06:39;8.48;;;6.85;;
28762;SDS011;15918;51.270;6.522;2023-09-07T07:09:05;9.93;;;6.45;;
28762;SDS011;15918;51.270;6.522;2023-09-07T07:11:30;7.88;;;6.85;;
28762;SDS011;15918;51.270;6.522;2023-09-07T07:13:56;7.60;;;6.82;;
28762;SDS011;15918;51.270;6.522;2023-09-07T07:16:22;10.70;;;7.13;;
28762;SDS011;15918;51.270;6.522;2023-09-07T07:18:47;8.27;;;7.00;;
28762;SDS011;15918;51.270;6.522;2023-09-07T07:21:13;7.60;;;6.20;;
28762;SDS011;15918;51.270;6.522;2023-09-07T07:23:38;10.85;;;6.90;;
28762;SDS011;15918;51.270;6.522;2023-09-07T07:26:04;8.85;;;6.47;;
28762;SDS011;15918;51.270;6.522;2023-09-07T07:28:30;8.38;;;6.93;;
28762;SDS011;15918;51.270;6.522;2023-09-07T07:30:56;8.43;;;6.40;;
28762;SDS011;15918;51.270;6.522;2023-09-07T07:33:21;7.93;;;5.93;;
28762;SDS011;15918;51.270;6.522;2023-09-07T07:35:47;7.38;;;5.60;;
28762;SDS011;15918;51.270;6.522;2023-09-07T07:38:13;6.55;;;5.75;;
28762;SDS011;15918;51.270;6.522;2023-09-07T07:40:40;9.10;;;6.00;;
28762;SDS011;15918;51.270;6.522;2023-09-07T07:43:05;7.97;;;6.18;;
28762;SDS011;15918;51.270;6.522;2023-09-07T07:45:32;9.32;;;5.47;;
28762;SDS011;15918;51.270;6.522;2023-09-07T07:48:01;6.82;;;5.65;;
28762;SDS011;15918;51.270;6.522;2023-09-07T07:50:30;10.50;;;6.10;;
28762;SDS011;15918;51.270;6.522;2023-09-07T07:52:56;7.35;;;5.65;;
28762;SDS011;15918;51.270;6.522;2023-09-07T07:55:22;8.75;;;6.03;;
28762;SDS011;15918;51.270;6.522;2023-09-07T07:57:48;9.70;;;6.05;;
28762;SDS011;15918;51.270;6.522;2023-09-07T08:00:13;8.40;;;6.10;;
28762;SDS011;15918;51.270;6.522;2023-09-07T08:02:39;9.50;;;5.93;;
28762;SDS011;15918;51.270;6.522;2023-09-07T08:05:05;9.40;;;5.50;;
28762;SDS011;15918;51.270;6.522;2023-09-07T08:07:31;6.47;;;5.65;;
28762;SDS011;15918;51.270;6.522;2023-09-07T08:09:57;7.72;;;5.75;;
28762;SDS011;15918;51.270;6.522;2023-09-07T08:12:22;7.50;;;6.22;;
28762;SDS011;15918;51.270;6.522;2023-09-07T08:14:48;9.98;;;6.05;;
28762;SDS011;15918;51.270;6.522;2023-09-07T08:17:13;7.40;;;5.65;;
28762;SDS011;15918;51.270;6.522;2023-09-07T08:19:39;9.73;;;5.80;;
28762;SDS011;15918;51.270;6.522;2023-09-07T08:22:05;8.63;;;5.38;;
28762;SDS011;15918;51.270;6.522;2023-09-07T08:24:31;10.98;;;6.10;;
28762;SDS011;15918;51.270;6.522;2023-09-07T08:26:57;6.78;;;5.60;;
28762;SDS011;15918;51.270;6.522;2023-09-07T08:29:25;7.78;;;5.30;;
28762;SDS011;15918;51.270;6.522;2023-09-07T08:31:52;7.65;;;5.55;;
28762;SDS011;15918;51.270;6.522;2023-09-07T08:34:18;7.97;;;5.90;;
28762;SDS011;15918;51.270;6.522;2023-09-07T08:36:47;7.47;;;5.60;;
28762;SDS011;15918;51.270;6.522;2023-09-07T08:39:15;7.85;;;5.50;;
28762;SDS011;15918;51.270;6.522;2023-09-07T08:41:41;8.38;;;5.22;;
28762;SDS011;15918;51.270;6.522;2023-09-07T08:44:10;7.35;;;5.90;;
28762;SDS011;15918;51.270;6.522;2023-09-07T08:46:40;6.50;;;5.20;;
28762;SDS011;15918;51.270;6.522;2023-09-07T08:49:06;7.18;;;5.55;;
28762;SDS011;15918;51.270;6.522;2023-09-07T08:51:32;8.38;;;5.47;;
28762;SDS011;15918;51.270;6.522;2023-09-07T08:53:58;10.38;;;6.00;;
28762;SDS011;15918;51.270;6.522;2023-09-07T08:56:23;7.25;;;5.13;;
28762;SDS011;15918;51.270;6.522;2023-09-07T08:58:49;9.30;;;5.43;;
28762;SDS011;15918;51.270;6.522;2023-09-07T09:01:16;6.40;;;5.22;;
28762;SDS011;15918;51.270;6.522;2023-09-07T09:03:46;9.30;;;5.47;;
28762;SDS011;15918;51.270;6.522;2023-09-07T09:06:14;8.10;;;5.25;;
28762;SDS011;15918;51.270;6.522;2023-09-07T09:08:42;7.97;;;5.50;;
28762;SDS011;15918;51.270;6.522;2023-09-07T09:11:08;8.10;;;5.47;;
28762;SDS011;15918;51.270;6.522;2023-09-07T09:13:34;11.88;;;5.20;;
28762;SDS011;15918;51.270;6.522;2023-09-07T09:15:59;10.45;;;4.95;;
28762;SDS011;15918;51.270;6.522;2023-09-07T09:18:28;11.75;;;5.65;;
28762;SDS011;15918;51.270;6.522;2023-09-07T09:20:55;8.30;;;5.43;;
28762;SDS011;15918;51.270;6.522;2023-09-07T09:23:21;7.25;;;5.55;;
28762;SDS011;15918;51.270;6.522;2023-09-07T09:25:49;6.03;;;5.43;;
28762;SDS011;15918;51.270;6.522;2023-09-07T09:28:16;11.30;;;5.78;;
28762;SDS011;15918;51.270;6.522;2023-09-07T09:30:41;6.88;;;5.05;;
28762;SDS011;15918;51.270;6.522;2023-09-07T09:33:10;5.38;;;4.82;;
28762;SDS011;15918;51.270;6.522;2023-09-07T09:35:36;9.10;;;5.47;;
28762;SDS011;15918;51.270;6.522;2023-09-07T09:38:03;6.85;;;5.43;;
28762;SDS011;15918;51.270;6.522;2023-09-07T09:40:30;6.15;;;5.28;;
28762;SDS011;15918;51.270;6.522;2023-09-07T09:42:59;8.25;;;5.93;;
28762;SDS011;15918;51.270;6.522;2023-09-07T09:45:27;12.23;;;5.45;;
28762;SDS011;15918;51.270;6.522;2023-09-07T09:47:54;10.60;;;6.00;;
28762;SDS011;15918;51.270;6.522;2023-09-07T09:50:25;6.47;;;5.70;;
28762;SDS011;15918;51.270;6.522;2023-09-07T09:52:52;10.15;;;5.88;;
28762;SDS011;15918;51.270;6.522;2023-09-07T09:55:18;8.57;;;5.68;;
28762;SDS011;15918;51.270;6.522;2023-09-07T09:57:44;7.93;;;5.43;;
28762;SDS011;15918;51.270;6.522;2023-09-07T10:00:10;7.68;;;5.35;;
28762;SDS011;15918;51.270;6.522;2023-09-07T10:02:55;6.15;;;5.18;;
28762;SDS011;15918;51.270;6.522;2023-09-07T10:05:32;6.65;;;5.40;;
28762;SDS011;15918;51.270;6.522;2023-09-07T10:08:03;9.20;;;5.72;;
28762;SDS011;15918;51.270;6.522;2023-09-07T10:10:38;8.23;;;5.43;;
28762;SDS011;15918;51.270;6.522;2023-09-07T10:13:06;7.57;;;5.10;;
28762;SDS011;15918;51.270;6.522;2023-09-07T10:15:32;6.60;;;5.50;;
28762;SDS011;15918;51.270;6.522;2023-09-07T10:20:49;6.13;;;5.53;;
28762;SDS011;15918;51.270;6.522;2023-09-07T10:23:16;8.00;;;5.32;;
28762;SDS011;15918;51.270;6.522;2023-09-07T10:25:42;9.43;;;6.50;;
28762;SDS011;15918;51.270;6.522;2023-09-07T10:28:23;9.82;;;5.43;;
28762;SDS011;15918;51.270;6.522;2023-09-07T10:30:59;7.90;;;5.50;;
28762;SDS011;15918;51.270;6.522;2023-09-07T10:33:30;6.43;;;5.80;;
28762;SDS011;15918;51.270;6.522;2023-09-07T10:35:59;11.38;;;5.13;;
28762;SDS011;15918;51.270;6.522;2023-09-07T10:38:26;6.38;;;5.40;;
28762;SDS011;15918;51.270;6.522;2023-09-07T10:40:59;9.32;;;5.10;;
28762;SDS011;15918;51.270;6.522;2023-09-07T10:43:26;7.35;;;6.20;;
28762;SDS011;15918;51.270;6.522;2023-09-07T10:45:53;5.85;;;5.35;;
28762;SDS011;15918;51.270;6.522;2023-09-07T10:48:21;7.93;;;5.60;;
28762;SDS011;15918;51.270;6.522;2023-09-07T10:50:47;6.85;;;5.22;;
28762;SDS011;15918;51.270;6.522;2023-09-07T10:53:13;7.55;;;5.38;;
28762;SDS011;15918;51.270;6.522;2023-09-07T10:55:40;7.18;;;5.18;;
28762;SDS011;15918;51.270;6.522;2023-09-07T10:58:08;7.30;;;5.25;;
28762;SDS011;15918;51.270;6.522;2023-09-07T11:00:35;7.53;;;5.50;;
28762;SDS011;15918;51.270;6.522;2023-09-07T11:03:07;7.30;;;6.00;;
28762;SDS011;15918;51.270;6.522;2023-09-07T11:05:34;5.85;;;5.20;;
28762;SDS011;15918;51.270;6.522;2023-09-07T11:08:02;5.20;;;4.80;;
28762;SDS011;15918;51.270;6.522;2023-09-07T11:10:31;5.20;;;4.70;;
28762;SDS011;15918;51.270;6.522;2023-09-07T11:13:01;5.93;;;5.30;;
28762;SDS011;15918;51.270;6.522;2023-09-07T11:15:29;5.20;;;4.70;;
28762;SDS011;15918;51.270;6.522;2023-09-07T11:17:55;6.43;;;4.97;;
28762;SDS011;15918;51.270;6.522;2023-09-07T11:20:21;5.90;;;5.32;;
28762;SDS011;15918;51.270;6.522;2023-09-07T11:22:49;7.47;;;5.38;;
28762;SDS011;15918;51.270;6.522;2023-09-07T11:25:15;6.65;;;4.85;;
28762;SDS011;15918;51.270;6.522;2023-09-07T11:27:40;7.72;;;4.57;;
28762;SDS011;15918;51.270;6.522;2023-09-07T11:30:06;6.07;;;5.07;;
28762;SDS011;15918;51.270;6.522;2023-09-07T11:32:34;6.32;;;4.50;;
28762;SDS011;15918;51.270;6.522;2023-09-07T11:34:59;5.70;;;5.20;;
28762;SDS011;15918;51.270;6.522;2023-09-07T11:37:25;6.65;;;4.75;;
28762;SDS011;15918;51.270;6.522;2023-09-07T11:39:51;6.30;;;5.20;;
28762;SDS011;15918;51.270;6.522;2023-09-07T11:42:17;6.75;;;5.30;;
28762;SDS011;15918;51.270;6.522;2023-09-07T11:44:42;6.50;;;4.93;;
28762;SDS011;15918;51.270;6.522;2023-09-07T11:47:08;8.15;;;4.97;;
28762;SDS011;15918;51.270;6.522;2023-09-07T11:49:34;8.68;;;4.88;;
28762;SDS011;15918;51.270;6.522;2023-09-07T11:51:59;6.95;;;5.25;;
28762;SDS011;15918;51.270;6.522;2023-09-07T11:54:25;5.35;;;4.85;;
28762;SDS011;15918;51.270;6.522;2023-09-07T11:56:52;7.47;;;5.15;;
28762;SDS011;15918;51.270;6.522;2023-09-07T11:59:18;9.75;;;5.78;;
28762;SDS011;15918;51.270;6.522;2023-09-07T12:01:43;9.52;;;4.75;;
28762;SDS011;15918;51.270;6.522;2023-09-07T12:04:09;7.72;;;5.00;;
28762;SDS011;15918;51.270;6.522;2023-09-07T12:06:35;11.73;;;5.20;;
28762;SDS011;15918;51.270;6.522;2023-09-07T12:09:02;15.35;;;6.05;;
28762;SDS011;15918;51.270;6.522;2023-09-07T12:11:37;8.30;;;5.32;;
28762;SDS011;15918;51.270;6.522;2023-09-07T12:14:03;5.85;;;5.07;;
28762;SDS011;15918;51.270;6.522;2023-09-07T12:16:29;5.90;;;5.00;;
28762;SDS011;15918;51.270;6.522;2023-09-07T12:18:55;8.40;;;5.28;;
28762;SDS011;15918;51.270;6.522;2023-09-07T12:21:21;6.10;;;4.95;;
28762;SDS011;15918;51.270;6.522;2023-09-07T12:23:46;7.68;;;4.70;;
28762;SDS011;15918;51.270;6.522;2023-09-07T12:26:13;7.20;;;4.65;;
28762;SDS011;15918;51.270;6.522;2023-09-07T12:28:39;5.70;;;4.75;;
28762;SDS011;15918;51.270;6.522;2023-09-07T12:31:05;5.63;;;4.85;;
28762;SDS011;15918;51.270;6.522;2023-09-07T12:33:30;5.05;;;4.57;;
28762;SDS011;15918;51.270;6.522;2023-09-07T12:35:57;9.25;;;5.15;;
28762;SDS011;15918;51.270;6.522;2023-09-07T12:38:23;7.20;;;4.97;;
28762;SDS011;15918;51.270;6.522;2023-09-07T12:40:53;5.50;;;5.00;;
28762;SDS011;15918;51.270;6.522;2023-09-07T12:43:19;5.10;;;4.57;;
28762;SDS011;15918;51.270;6.522;2023-09-07T12:45:45;4.97;;;4.47;;
28762;SDS011;15918;51.270;6.522;2023-09-07T12:48:11;5.15;;;4.65;;
28762;SDS011;15918;51.270;6.522;2023-09-07T12:50:37;5.47;;;4.97;;
28762;SDS011;15918;51.270;6.522;2023-09-07T12:53:02;6.55;;;4.55;;
28762;SDS011;15918;51.270;6.522;2023-09-07T12:55:28;10.27;;;4.80;;
28762;SDS011;15918;51.270;6.522;2023-09-07T12:57:55;6.65;;;5.35;;
28762;SDS011;15918;51.270;6.522;2023-09-07T13:00:20;9.15;;;5.30;;
28762;SDS011;15918;51.270;6.522;2023-09-07T13:02:46;6.40;;;4.88;;
28762;SDS011;15918;51.270;6.522;2023-09-07T13:05:12;10.43;;;5.45;;
28762;SDS011;15918;51.270;6.522;2023-09-07T13:07:37;6.10;;;5.07;;
28762;SDS011;15918;51.270;6.522;2023-09-07T13:10:04;5.47;;;5.07;;
28762;SDS011;15918;51.270;6.522;2023-09-07T13:12:33;6.68;;;4.55;;
28762;SDS011;15918;51.270;6.522;2023-09-07T13:14:59;7.60;;;5.18;;
28762;SDS011;15918;51.270;6.522;2023-09-07T13:17:24;6.90;;;5.28;;
28762;SDS011;15918;51.270;6.522;2023-09-07T13:19:50;5.38;;;4.70;;
28762;SDS011;15918;51.270;6.522;2023-09-07T13:22:16;9.05;;;4.57;;
28762;SDS011;15918;51.270;6.522;2023-09-07T13:24:42;4.82;;;4.43;;
28762;SDS011;15918;51.270;6.522;2023-09-07T13:27:08;7.20;;;5.10;;
28762;SDS011;15918;51.270;6.522;2023-09-07T13:29:35;6.50;;;5.20;;
28762;SDS011;15918;51.270;6.522;2023-09-07T13:32:01;5.60;;;4.57;;
28762;SDS011;15918;51.270;6.522;2023-09-07T13:34:27;9.00;;;4.88;;
28762;SDS011;15918;51.270;6.522;2023-09-07T13:36:52;7.68;;;4.53;;
28762;SDS011;15918;51.270;6.522;2023-09-07T13:39:18;7.07;;;4.85;;
28762;SDS011;15918;51.270;6.522;2023-09-07T13:41:44;5.60;;;5.10;;
28762;SDS011;15918;51.270;6.522;2023-09-07T13:44:11;6.07;;;4.55;;
28762;SDS011;15918;51.270;6.522;2023-09-07T13:46:36;6.88;;;4.30;;
28762;SDS011;15918;51.270;6.522;2023-09-07T13:49:02;6.80;;;5.47;;
28762;SDS011;15918;51.270;6.522;2023-09-07T13:51:28;7.25;;;4.85;;
28762;SDS011;15918;51.270;6.522;2023-09-07T13:53:56;8.80;;;5.15;;
28762;SDS011;15918;51.270;6.522;2023-09-07T13:56:22;7.03;;;4.80;;
28762;SDS011;15918;51.270;6.522;2023-09-07T13:58:47;5.45;;;4.95;;
28762;SDS011;15918;51.270;6.522;2023-09-07T14:01:13;5.40;;;4.90;;
28762;SDS011;15918;51.270;6.522;2023-09-07T14:03:39;6.65;;;4.93;;
28762;SDS011;15918;51.270;6.522;2023-09-07T14:06:04;5.45;;;4.95;;
28762;SDS011;15918;51.270;6.522;2023-09-07T14:08:30;6.85;;;5.13;;
28762;SDS011;15918;51.270;6.522;2023-09-07T14:10:58;5.35;;;4.82;;
28762;SDS011;15918;51.270;6.522;2023-09-07T14:13:23;15.73;;;5.65;;
28762;SDS011;15918;51.270;6.522;2023-09-07T14:15:49;5.70;;;4.88;;
28762;SDS011;15918;51.270;6.522;2023-09-07T14:18:14;5.78;;;5.28;;
28762;SDS011;15918;51.270;6.522;2023-09-07T14:20:41;6.78;;;5.03;;
28762;SDS011;15918;51.270;6.522;2023-09-07T14:23:06;6.57;;;5.18;;
28762;SDS011;15918;51.270;6.522;2023-09-07T14:25:32;11.90;;;5.65;;
28762;SDS011;15918;51.270;6.522;2023-09-07T14:27:58;9.90;;;5.00;;
28762;SDS011;15918;51.270;6.522;2023-09-07T14:30:23;8.10;;;4.90;;
28762;SDS011;15918;51.270;6.522;2023-09-07T14:32:50;7.40;;;5.32;;
28762;SDS011;15918;51.270;6.522;2023-09-07T14:35:15;8.65;;;5.18;;
28762;SDS011;15918;51.270;6.522;2023-09-07T14:37:41;7.68;;;4.75;;
28762;SDS011;15918;51.270;6.522;2023-09-07T14:40:07;6.93;;;5.25;;
28762;SDS011;15918;51.270;6.522;2023-09-07T14:42:33;11.80;;;5.00;;
28762;SDS011;15918;51.270;6.522;2023-09-07T14:44:59;6.70;;;4.82;;
28762;SDS011;15918;51.270;6.522;2023-09-07T14:47:27;10.88;;;5.22;;